Accueil
METAR-TAF:

METAR-TAF

Aéroports :

Roi Et, Thaïlande

latitude: 16-07-00N, longitude: 103-46-26E, altitude: 138 m

Observation

Le bulletin a été fait il y a 27 minutes, à 07:00 UTC
Vent 7 kt de sud, variant entre sud/sud-est et sud-ouest
Température 33°C
Humidité 56%
Pression 1008 hPa
Visibilité 10 km ou plus
Nuages fragmentés à une hauteur de 3000 ft

METAR: VTUV 080700Z 19007KT 150V220 9999 BKN030 33/23 Q1008 NOSIG

Heure: 14:27 (07:27 UTC)

Prévision

Le bulletin a été fait il y a 2 heures et 27 minutes, à 05:00 UTC
Prévision valable du 08 à 06 UTC au 09 à 06 UTC
Vent 5 kt de sud/sud-ouest
Visibilité 10 km ou plus
Nuages épars à une hauteur de 3000 ft

TAF: VTUV 080500Z 0806/0906 21005KT 9999 SCT030

Observations et prévisions météorologiques de plus de 4000 aéroports (messages METAR et TAF).

Les stations disponibles sont représentées par des disques jaunes et rouges sur la carte.

Passer la souris dessus pour voir le nom de la station.

Cliquer dessus pour voir les observations et prévisions météorologiques.

Pour changer de carte: cliquez sur les boutons verts avec une croix noire pour zoomer, sur le bouton vert avec un tiret pour effectuer un zoom arrière, ou sur les flèches vertes pour les cartes adjacentes.


METAR-TAF: